createdAt,value
2019-02-21T00:23:21.337Z,12.47
2019-02-21T01:50:32.185Z,13.97
2019-02-21T02:11:33.385Z,14.97
2019-02-21T05:30:09.968Z,12.67
2019-02-21T05:43:33.632Z,15.13
2019-02-21T05:46:41.198Z,14.77
2019-02-21T06:21:11.376Z,16.60
2019-02-21T06:24:18.895Z,16.37
2019-02-21T07:59:39.595Z,17.77
2019-02-21T08:02:09.775Z,18.80
2019-02-21T08:04:58.542Z,19.40
2019-02-21T08:07:39.610Z,18.13
2019-02-21T08:10:09.707Z,18.63
2019-02-21T08:23:29.198Z,16.20
2019-02-21T08:25:58.991Z,17.03
2019-02-21T08:28:48.088Z,17.20
2019-02-21T08:44:43.192Z,16.93
2019-02-21T08:47:24.339Z,17.00
2019-02-21T08:50:04.225Z,16.93
2019-02-21T08:52:52.924Z,17.37
2019-02-21T08:55:34.314Z,16.40
2019-02-21T08:58:15.668Z,16.57
2019-02-21T09:00:58.118Z,15.80
2019-02-21T10:09:38.209Z,16.70
2019-02-21T10:12:27.077Z,17.37
2019-02-21T10:15:08.801Z,16.53
2019-02-21T10:38:48.726Z,19.23
2019-02-21T10:41:37.565Z,19.47
2019-02-21T10:44:17.579Z,18.17
2019-02-21T10:47:06.333Z,18.60
2019-02-21T10:49:47.238Z,18.43
2019-02-21T10:52:35.958Z,18.43
2019-02-21T10:55:17.200Z,18.03
2019-02-21T11:29:32.496Z,20.93
2019-02-21T11:32:21.297Z,21.43
2019-02-21T11:35:06.139Z,22.33
2019-02-21T12:57:13.284Z,20.67
2019-02-21T13:37:03.448Z,17.73
2019-02-21T13:39:35.644Z,18.00
2019-02-21T13:42:24.777Z,16.20
2019-02-21T13:45:08.101Z,15.80
2019-02-21T13:48:31.961Z,17.60
2019-02-21T13:51:02.144Z,17.07
2019-02-21T14:05:03.981Z,16.40
2019-02-21T14:26:36.840Z,17.30
2019-02-21T14:34:41.809Z,15.80
2019-02-21T14:43:41.873Z,17.93
2019-02-21T14:48:45.813Z,17.63
2019-02-21T14:55:08.567Z,19.07
2019-02-21T15:16:15.304Z,18.70
2019-02-21T15:19:04.163Z,18.23
2019-02-21T15:21:46.653Z,19.30
2019-02-21T16:33:05.953Z,26.70
2019-02-21T16:35:54.802Z,26.83
2019-02-21T16:38:35.840Z,26.60
2019-02-21T17:13:03.801Z,29.47
2019-02-21T17:26:08.790Z,27.10
2019-02-21T17:28:57.609Z,27.53
2019-02-21T17:31:39.066Z,29.33
2019-02-21T17:34:09.107Z,28.73
2019-02-21T17:36:57.881Z,29.27
2019-02-21T17:39:38.712Z,27.83
2019-02-21T17:42:27.453Z,28.00
2019-02-21T17:45:07.483Z,29.30
2019-02-21T17:47:56.367Z,28.03
2019-02-21T17:50:37.667Z,28.80
2019-02-21T18:09:00.207Z,28.73
2019-02-21T18:11:30.193Z,27.87
2019-02-21T18:14:19.084Z,28.43
2019-02-21T18:17:00.519Z,28.07
2019-02-21T18:24:59.332Z,29.13
2019-02-21T18:38:14.450Z,31.20
2019-02-21T18:40:55.644Z,31.37
2019-02-21T18:43:35.345Z,28.43
2019-02-21T18:46:24.099Z,28.90
2019-02-21T18:49:05.073Z,25.90
2019-02-21T18:51:45.977Z,24.90
2019-02-21T18:54:27.303Z,12.37
2019-02-21T18:57:07.098Z,20.37
2019-02-21T18:59:55.842Z,24.57
2019-02-21T19:02:37.212Z,13.63
2019-02-21T19:05:18.615Z,18.37
2019-02-21T19:08:04.960Z,16.73
2019-02-21T19:10:48.727Z,12.60
2019-02-21T19:13:29.711Z,17.23
2019-02-21T19:31:53.872Z,16.53
2019-02-21T19:34:42.628Z,16.07
2019-02-21T19:37:24.214Z,16.60
2019-02-21T19:42:32.802Z,11.67
2019-02-21T19:45:13.921Z,8.77
2019-02-21T19:47:55.040Z,9.40
2019-02-21T19:50:36.165Z,3.33
2019-02-21T19:53:15.927Z,5.27
2019-02-21T19:55:58.324Z,3.70
2019-02-21T19:58:39.913Z,7.67
2019-02-21T20:51:28.125Z,6.67
2019-02-21T20:54:16.861Z,8.37
2019-02-21T20:56:56.823Z,5.93
2019-02-21T20:59:45.661Z,6.20
2019-02-21T21:02:27.031Z,8.63
2019-02-21T21:15:32.021Z,8.57
2019-02-21T21:18:01.937Z,6.33
2019-02-21T21:20:50.777Z,5.33
2019-02-21T21:23:32.305Z,6.43
2019-02-21T22:13:40.199Z,9.57
2019-02-21T22:16:29.262Z,9.83
2019-02-21T22:19:07.700Z,10.83
2019-02-21T23:25:11.087Z,5.40
